createdAt,value
2022-08-05T00:01:29.386Z,47.69
2022-08-05T00:02:52.495Z,47.92
2022-08-05T00:03:59.177Z,47.62
2022-08-05T00:06:03.479Z,47.76
2022-08-05T00:08:03.028Z,47.61
2022-08-05T00:09:19.606Z,47.64
2022-08-05T00:10:29.239Z,47.54
2022-08-05T00:11:59.926Z,47.74
2022-08-05T00:13:05.766Z,47.56
2022-08-05T00:14:29.087Z,47.56
2022-08-05T00:16:01.184Z,47.7
2022-08-05T00:17:20.616Z,47.49
2022-08-05T00:18:25.261Z,47.4
2022-08-05T00:20:02.318Z,47.54
2022-08-05T00:21:09.554Z,47.47
2022-08-05T00:22:13.988Z,47.27
2022-08-05T00:24:10.214Z,47.5
2022-08-05T00:25:19.237Z,47.55
2022-08-05T00:26:24.144Z,47.44
2022-08-05T00:27:43.788Z,47.34
2022-08-05T00:28:51.267Z,47.29
2022-08-05T00:30:03.146Z,47.29
2022-08-05T00:31:11.865Z,47.09
2022-08-05T00:32:17.458Z,47.09
2022-08-05T00:35:08.771Z,47.09
2022-08-05T00:37:15.360Z,47.39
2022-08-05T00:38:35.074Z,47.13
2022-08-05T00:39:59.589Z,47.13
2022-08-05T00:41:03.974Z,47.32
2022-08-05T00:42:33.909Z,47.19
2022-08-05T00:43:51.540Z,47.23
2022-08-05T00:44:56.184Z,46.88
2022-08-05T00:46:00.958Z,46.98
2022-08-05T00:47:13.035Z,47.01
2022-08-05T00:48:32.756Z,46.94
2022-08-05T00:49:54.610Z,46.97
2022-08-05T00:50:59.026Z,46.99
2022-08-05T00:52:04.464Z,46.9
2022-08-05T00:54:03.958Z,47.07
2022-08-05T00:55:08.723Z,47.1
2022-08-05T00:56:22.638Z,46.95
2022-08-05T00:57:59.801Z,46.97
2022-08-05T00:59:09.452Z,46.87
2022-08-05T01:00:17.953Z,47.18
2022-08-05T01:01:50.428Z,47.47
2022-08-05T01:02:55.047Z,47.11
2022-08-05T01:04:02.290Z,47.16
2022-08-05T01:05:16.750Z,47.09
2022-08-05T01:06:33.673Z,47.04
2022-08-05T01:08:42.531Z,47.29
2022-08-05T01:09:57.748Z,47.49
2022-08-05T01:11:02.153Z,47.03
2022-08-05T01:12:20.294Z,47.43
2022-08-05T01:14:00.902Z,47.32
2022-08-05T01:15:06.231Z,47.46
2022-08-05T01:16:39.881Z,47.25
2022-08-05T01:17:55.916Z,47.68
2022-08-05T01:19:02.797Z,47.38
2022-08-05T01:20:07.151Z,47.48
2022-08-05T01:21:23.854Z,47.57
2022-08-05T01:22:42.416Z,47.81
2022-08-05T01:23:57.709Z,47.44
2022-08-05T01:25:06.685Z,47.75
2022-08-05T01:26:11.817Z,47.71
2022-08-05T01:27:23.301Z,47.41
2022-08-05T01:28:27.651Z,47.53
2022-08-05T01:29:35.936Z,47.37
2022-08-05T01:30:40.369Z,47.4
2022-08-05T01:31:56.815Z,47.65
2022-08-05T01:33:04.118Z,47.64
2022-08-05T01:34:11.995Z,47.48
2022-08-05T01:35:58.425Z,47.58
2022-08-05T01:37:04.102Z,47.48
2022-08-05T01:38:24.994Z,47.49
2022-08-05T01:39:49.278Z,47.66
2022-08-05T01:40:54.616Z,47.47
2022-08-05T01:41:58.972Z,47.86
2022-08-05T01:43:07.164Z,47.62
2022-08-05T01:44:36.671Z,47.81
2022-08-05T01:45:57.294Z,47.88
2022-08-05T01:47:10.540Z,47.79
2022-08-05T01:48:18.668Z,47.59
2022-08-05T01:49:26.019Z,47.83
2022-08-05T01:51:15.031Z,47.8
2022-08-05T01:52:21.141Z,47.71
2022-08-05T01:54:03.149Z,47.75
2022-08-05T01:55:09.505Z,47.88
2022-08-05T01:58:15.259Z,47.82
2022-08-05T01:59:36.753Z,47.78
2022-08-05T02:00:44.788Z,47.89
2022-08-05T02:01:51.067Z,47.91
2022-08-05T02:02:57.637Z,48.04
2022-08-05T02:04:02.012Z,47.89
2022-08-05T02:05:16.465Z,47.88
2022-08-05T02:06:40.030Z,48.25
2022-08-05T02:08:03.159Z,48.05
2022-08-05T02:09:07.873Z,48.02
2022-08-05T02:10:29.327Z,48.11
2022-08-05T02:11:35.656Z,48.01
2022-08-05T02:12:52.927Z,48.04
2022-08-05T02:13:57.304Z,48.18
2022-08-05T02:15:05.100Z,48.05
2022-08-05T02:16:23.035Z,48.1
2022-08-05T02:18:36.212Z,48.07
2022-08-05T02:19:49.269Z,48.33
2022-08-05T02:20:54.575Z,48.3
2022-08-05T02:22:03.219Z,48.27
2022-08-05T02:23:12.303Z,48.33
2022-08-05T02:24:24.352Z,48.38
2022-08-05T02:25:51.473Z,48.26
2022-08-05T02:26:56.882Z,48.34
2022-08-05T02:28:08.629Z,48.33
2022-08-05T02:30:00.694Z,48.47
2022-08-05T02:31:14.382Z,48.42
2022-08-05T02:32:32.434Z,48.52
2022-08-05T02:33:40.443Z,48.28
2022-08-05T02:34:55.549Z,48.36
2022-08-05T02:36:03.260Z,48.31
2022-08-05T02:37:09.389Z,48.41
2022-08-05T02:38:27.969Z,48.35
2022-08-05T02:39:51.594Z,48.51
2022-08-05T02:40:58.042Z,48.48
2022-08-05T02:42:04.212Z,48.36
2022-08-05T02:43:10.756Z,48.28
2022-08-05T02:44:17.446Z,48.37
2022-08-05T02:45:26.351Z,48.65
2022-08-05T02:46:32.782Z,48.53
2022-08-05T02:48:14.668Z,48.4
2022-08-05T02:49:23.877Z,48.67
2022-08-05T02:50:30.725Z,48.4
2022-08-05T02:52:06.404Z,48.41
2022-08-05T02:53:20.274Z,48.31
2022-08-05T02:54:42.749Z,48.36
2022-08-05T02:56:03.396Z,48.3
2022-08-05T02:58:13.889Z,48.32
2022-08-05T02:59:27.907Z,48.3
2022-08-05T03:00:32.985Z,48.59
2022-08-05T03:01:45.626Z,48.36
2022-08-05T03:02:50.036Z,48.43
2022-08-05T03:04:15.818Z,48.6
2022-08-05T03:07:00.539Z,48.77
2022-08-05T03:08:12.422Z,48.69
2022-08-05T03:09:44.023Z,48.75
2022-08-05T03:11:59.329Z,48.58
2022-08-05T03:14:14.268Z,48.59
2022-08-05T03:15:19.262Z,48.77
2022-08-05T03:16:25.125Z,48.86
2022-08-05T03:17:32.505Z,48.48
2022-08-05T03:18:49.785Z,48.7
2022-08-05T03:19:54.138Z,48.44
2022-08-05T03:21:04.209Z,48.54
2022-08-05T03:22:32.991Z,48.45
2022-08-05T03:23:41.957Z,48.66
2022-08-05T03:24:53.402Z,48.29
2022-08-05T03:26:33.577Z,48.42
2022-08-05T03:28:01.824Z,48.7
2022-08-05T03:29:13.328Z,48.06
2022-08-05T03:30:35.193Z,48.54
2022-08-05T03:32:01.691Z,48.25
2022-08-05T03:33:08.490Z,48.25
2022-08-05T03:34:12.854Z,48.08
2022-08-05T03:35:19.619Z,48.18
2022-08-05T03:36:32.744Z,48.18
2022-08-05T03:37:48.594Z,47.98
2022-08-05T03:38:58.646Z,48.14
2022-08-05T03:40:12.934Z,48.05
2022-08-05T03:41:26.054Z,48.27
2022-08-05T03:42:54.118Z,48.07
2022-08-05T03:44:21.101Z,48.34
2022-08-05T03:45:26.417Z,48.08
2022-08-05T03:46:33.695Z,48.16
2022-08-05T03:47:43.967Z,48.39
2022-08-05T03:48:52.030Z,48.17
2022-08-05T03:49:58.521Z,48.23
2022-08-05T03:56:17.277Z,48.03
2022-08-05T03:57:45.982Z,48.05
2022-08-05T03:58:53.213Z,47.86
2022-08-05T03:59:57.859Z,48.06
2022-08-05T04:01:05.050Z,47.97
2022-08-05T04:02:34.822Z,47.85
2022-08-05T04:04:11.555Z,48.16
2022-08-05T04:05:16.775Z,48.13
2022-08-05T04:06:26.487Z,48.16
2022-08-05T04:07:58.998Z,48.27
2022-08-05T04:09:04.912Z,48.32
2022-08-05T04:10:18.533Z,48.25
2022-08-05T04:11:47.157Z,48.35
2022-08-05T04:12:59.926Z,48.31
2022-08-05T04:14:04.996Z,48.31
2022-08-05T04:15:16.748Z,48.36
2022-08-05T04:16:33.510Z,48.32
2022-08-05T04:18:01.084Z,48.26
2022-08-05T04:19:13.743Z,48.2
2022-08-05T04:20:20.988Z,48.18
2022-08-05T04:22:13.409Z,48.01
2022-08-05T04:24:14.271Z,47.93
2022-08-05T04:26:01.850Z,47.95
2022-08-05T04:27:09.584Z,47.78
2022-08-05T04:28:17.182Z,47.69
2022-08-05T04:29:21.965Z,47.63
2022-08-05T04:30:29.380Z,47.54
2022-08-05T04:31:41.454Z,47.53
2022-08-05T04:32:47.351Z,47.47
2022-08-05T04:34:36.688Z,47.46
2022-08-05T04:36:50.566Z,47.44
2022-08-05T04:38:07.824Z,47.38
2022-08-05T04:39:14.059Z,47.49
2022-08-05T04:40:21.404Z,47.29
2022-08-05T04:41:39.917Z,47.31
2022-08-05T04:42:48.971Z,47.23
2022-08-05T04:43:55.922Z,47.22
2022-08-05T04:45:03.829Z,47.19
2022-08-05T04:46:08.621Z,47.19
2022-08-05T04:47:23.334Z,47.22
2022-08-05T04:48:30.021Z,47.18
2022-08-05T04:50:12.597Z,47.28
2022-08-05T04:51:16.964Z,47.15
2022-08-05T04:52:21.468Z,47.17
2022-08-05T04:53:25.911Z,47.07
2022-08-05T04:54:30.287Z,47.12
2022-08-05T04:56:38.002Z,47.1
2022-08-05T04:57:55.078Z,47.11
2022-08-05T04:58:59.741Z,47.04
2022-08-05T05:00:26.125Z,47.01
2022-08-05T05:02:41.665Z,47
2022-08-05T05:03:47.606Z,46.9
2022-08-05T05:05:03.356Z,46.94
2022-08-05T05:06:49.447Z,46.85
2022-08-05T05:08:03.449Z,46.85
2022-08-05T05:09:08.831Z,46.88
2022-08-05T05:10:15.530Z,46.84
2022-08-05T05:11:54.198Z,46.89
2022-08-05T05:13:05.510Z,46.91
2022-08-05T05:14:32.122Z,46.81
2022-08-05T05:16:07.953Z,46.79
2022-08-05T05:17:12.833Z,46.78
2022-08-05T05:18:35.122Z,46.78
2022-08-05T05:19:49.483Z,46.75
2022-08-05T05:20:55.436Z,46.71
2022-08-05T05:22:26.200Z,46.67
2022-08-05T05:24:09.786Z,46.66
2022-08-05T05:25:19.207Z,46.63
2022-08-05T05:26:36.670Z,46.63
2022-08-05T05:27:56.918Z,46.67
2022-08-05T05:29:02.243Z,46.64
2022-08-05T05:30:28.975Z,46.62
2022-08-05T05:32:36.463Z,46.61
2022-08-05T05:34:03.933Z,46.61
2022-08-05T05:35:09.676Z,46.6
2022-08-05T05:36:16.991Z,46.52
2022-08-05T05:37:38.250Z,46.48
2022-08-05T05:39:11.605Z,46.53
2022-08-05T05:40:16.975Z,46.53
2022-08-05T05:41:25.251Z,46.52
2022-08-05T05:42:50.298Z,46.52
2022-08-05T05:44:01.783Z,47.1
2022-08-05T05:45:06.142Z,46.85
2022-08-05T05:46:22.869Z,46.77
2022-08-05T05:48:08.699Z,46.58
2022-08-05T05:49:24.848Z,46.42
2022-08-05T05:50:29.357Z,46.48
2022-08-05T05:51:54.493Z,46.47
2022-08-05T05:53:02.236Z,46.43
2022-08-05T05:54:52.367Z,46.41
2022-08-05T05:56:04.233Z,46.34
2022-08-05T05:57:20.523Z,46.45
2022-08-05T05:58:33.572Z,46.33
2022-08-05T05:59:44.271Z,46.45
2022-08-05T06:00:50.639Z,46.39
2022-08-05T06:01:59.974Z,46.35
2022-08-05T06:03:54.371Z,46.24
2022-08-05T06:05:18.552Z,46.26
2022-08-05T06:06:34.908Z,46.28
2022-08-05T06:08:03.824Z,46.41
2022-08-05T06:09:16.574Z,46.44
2022-08-05T06:10:34.487Z,46.39
2022-08-05T06:11:41.809Z,46.28
2022-08-05T06:13:03.937Z,46.33
2022-08-05T06:14:08.535Z,46.37
2022-08-05T06:16:32.953Z,46.47
2022-08-05T06:17:55.844Z,46.69
2022-08-05T06:19:08.216Z,46.66
2022-08-05T06:20:23.679Z,46.55
2022-08-05T06:21:42.273Z,46.81
2022-08-05T06:22:54.074Z,46.77
2022-08-05T06:24:02.598Z,46.88
2022-08-05T06:26:26.082Z,46.96
2022-08-05T06:28:22.895Z,46.89
2022-08-05T06:30:16.899Z,46.86
2022-08-05T06:31:34.576Z,46.91
2022-08-05T06:32:41.601Z,46.96
2022-08-05T06:34:10.124Z,46.88
2022-08-05T06:36:11.113Z,46.84
2022-08-05T06:37:59.491Z,46.81
2022-08-05T06:39:05.519Z,46.76
2022-08-05T06:40:12.703Z,46.74
2022-08-05T06:41:18.068Z,46.73
2022-08-05T06:42:22.452Z,46.79
2022-08-05T06:44:01.854Z,47.21
2022-08-05T06:45:44.141Z,47.08
2022-08-05T06:48:11.361Z,47.17
2022-08-05T06:50:06.599Z,47.1
2022-08-05T06:51:29.692Z,47.04
2022-08-05T06:52:41.557Z,47.13
2022-08-05T06:54:04.205Z,47.09
2022-08-05T06:55:08.832Z,47.08
2022-08-05T06:56:28.297Z,47.18
2022-08-05T06:58:36.341Z,47.21
2022-08-05T06:59:58.990Z,47.08
2022-08-05T07:01:03.602Z,47.03
2022-08-05T07:02:07.996Z,47.13
2022-08-05T07:03:13.196Z,47.22
2022-08-05T07:04:21.272Z,47.09
2022-08-05T07:05:42.348Z,47.24
2022-08-05T07:06:51.259Z,47.09
2022-08-05T07:07:55.677Z,47.08
2022-08-05T07:09:05.095Z,47.11
2022-08-05T07:10:09.527Z,47.32
2022-08-05T07:11:25.313Z,47.57
2022-08-05T07:12:30.044Z,47.27
2022-08-05T07:14:00.875Z,47.21
2022-08-05T07:15:09.741Z,47.32
2022-08-05T07:18:12.539Z,47.28
2022-08-05T07:20:37.025Z,47.04
2022-08-05T07:22:03.779Z,47.17
2022-08-05T07:23:25.994Z,47.28
2022-08-05T07:24:52.393Z,47.08
2022-08-05T07:25:58.973Z,47.07
2022-08-05T07:27:09.893Z,47.11
2022-08-05T07:28:20.036Z,47.04
2022-08-05T07:30:34.397Z,47
2022-08-05T07:31:56.578Z,46.97
2022-08-05T07:33:01.197Z,46.96
2022-08-05T07:34:09.434Z,46.95
2022-08-05T07:36:22.809Z,47.17
2022-08-05T07:37:40.443Z,46.79
2022-08-05T07:38:57.120Z,46.9
2022-08-05T07:40:36.386Z,46.76
2022-08-05T07:42:17.331Z,46.68
2022-08-05T07:43:38.140Z,46.75
2022-08-05T07:44:47.205Z,46.74
2022-08-05T07:46:00.372Z,46.79
2022-08-05T07:47:11.152Z,46.85
2022-08-05T07:49:07.895Z,46.54
2022-08-05T07:50:17.770Z,46.81
2022-08-05T07:51:55.230Z,46.76
2022-08-05T07:53:00.576Z,46.85
2022-08-05T07:54:06.102Z,46.78
2022-08-05T07:57:00.959Z,46.8
2022-08-05T07:59:00.370Z,46.9
2022-08-05T08:00:04.744Z,46.79
2022-08-05T08:01:23.175Z,46.93
2022-08-05T08:03:16.581Z,46.91
2022-08-05T08:04:39.508Z,46.91
2022-08-05T08:05:51.354Z,46.87
2022-08-05T08:06:57.858Z,46.77
2022-08-05T08:08:02.877Z,46.86
2022-08-05T08:09:07.600Z,46.75
2022-08-05T08:10:12.022Z,46.75
2022-08-05T08:11:47.030Z,46.7
2022-08-05T08:12:52.242Z,46.6
2022-08-05T08:14:04.727Z,46.56
2022-08-05T08:15:17.866Z,46.51
2022-08-05T08:16:54.664Z,46.54
2022-08-05T08:18:09.933Z,46.6
2022-08-05T08:21:01.200Z,46.57
2022-08-05T08:22:16.898Z,46.61
2022-08-05T08:24:08.518Z,46.67
2022-08-05T08:25:59.500Z,46.54
2022-08-05T08:27:09.247Z,46.32
2022-08-05T08:29:21.510Z,46.35
2022-08-05T08:30:50.866Z,46.28
2022-08-05T08:31:55.382Z,46.34
2022-08-05T08:33:08.147Z,46.35
2022-08-05T08:34:14.689Z,46.32
2022-08-05T08:35:27.631Z,46.37
2022-08-05T08:37:05.366Z,46.27
2022-08-05T08:38:17.485Z,46.47
2022-08-05T08:39:51.531Z,46.22
2022-08-05T08:40:57.897Z,46.11
2022-08-05T08:42:15.275Z,46.1
2022-08-05T08:45:30.822Z,46.05
2022-08-05T08:46:35.706Z,46.06
2022-08-05T08:49:05.129Z,46.3
2022-08-05T08:52:26.290Z,46.06
2022-08-05T08:53:32.942Z,45.98
2022-08-05T08:54:43.126Z,45.9
2022-08-05T08:56:07.721Z,45.91
2022-08-05T08:57:14.516Z,46.01
2022-08-05T08:58:48.913Z,46.1
2022-08-05T08:59:57.092Z,46.27
2022-08-05T09:01:03.412Z,46.27
2022-08-05T09:02:10.704Z,46.29
2022-08-05T09:03:21.900Z,46.4
2022-08-05T09:04:32.700Z,46.44
2022-08-05T09:06:17.117Z,46.24
2022-08-05T09:07:58.244Z,45.86
2022-08-05T09:09:03.914Z,45.47
2022-08-05T09:10:09.195Z,45.25
2022-08-05T09:11:15.761Z,45.18
2022-08-05T09:12:28.917Z,45.06
2022-08-05T09:15:04.877Z,45.05
2022-08-05T09:16:18.140Z,45.12
2022-08-05T09:17:50.633Z,45.36
2022-08-05T09:19:00.457Z,45.41
2022-08-05T09:20:09.510Z,45.48
2022-08-05T09:22:33.172Z,45.24
2022-08-05T09:23:45.426Z,45.33
2022-08-05T09:24:51.117Z,45.52
2022-08-05T09:26:08.505Z,45.49
2022-08-05T09:28:06.632Z,45.53
2022-08-05T09:29:11.367Z,45.46
2022-08-05T09:30:25.523Z,45.45
2022-08-05T09:32:47.910Z,45.37
2022-08-05T09:33:54.609Z,45.38
2022-08-05T09:35:03.504Z,45.45
2022-08-05T09:36:20.480Z,45.58
2022-08-05T09:38:29.553Z,45.54
2022-08-05T09:39:56.913Z,45.48
2022-08-05T09:41:03.595Z,45.49
2022-08-05T09:42:23.839Z,45.52
2022-08-05T09:43:43.383Z,45.33
2022-08-05T09:45:03.432Z,45.16
2022-08-05T09:47:15.482Z,44.88
2022-08-05T09:48:28.419Z,44.79
2022-08-05T09:50:04.463Z,44.64
2022-08-05T09:51:17.144Z,44.8
2022-08-05T09:52:26.801Z,44.4
2022-08-05T09:54:01.443Z,44.55
2022-08-05T09:56:13.213Z,44.91
2022-08-05T09:57:26.078Z,44.72
2022-08-05T09:58:31.710Z,44.72
2022-08-05T09:59:38.297Z,45.08
2022-08-05T10:00:42.635Z,45.36
2022-08-05T10:01:47.819Z,45.6
2022-08-05T10:02:52.436Z,45.79
2022-08-05T10:04:01.794Z,45.91
2022-08-05T10:05:11.234Z,46
2022-08-05T10:06:18.143Z,46.11
2022-08-05T10:08:43.472Z,46.21
2022-08-05T10:10:19.060Z,46.31
2022-08-05T10:11:37.448Z,46.37
2022-08-05T10:12:51.786Z,46.37
2022-08-05T10:13:57.403Z,46.43
2022-08-05T10:15:04.521Z,46.45
2022-08-05T10:16:09.191Z,46.49
2022-08-05T10:17:47.142Z,46.54
2022-08-05T10:19:01.592Z,46.57
2022-08-05T10:20:20.074Z,46.68
2022-08-05T10:21:25.028Z,46.73
2022-08-05T10:22:39.166Z,46.77
2022-08-05T10:24:10.624Z,46.76
2022-08-05T10:25:16.713Z,46.8
2022-08-05T10:26:33.958Z,46.85
2022-08-05T10:28:29.552Z,46.88
2022-08-05T10:33:02.343Z,46.92
2022-08-05T10:34:10.082Z,46.96
2022-08-05T10:35:14.487Z,46.98
2022-08-05T10:36:27.132Z,47.02
2022-08-05T10:37:47.750Z,46.99
2022-08-05T10:38:54.490Z,47.02
2022-08-05T10:40:19.706Z,47.08
2022-08-05T10:41:46.467Z,47.04
2022-08-05T10:42:52.563Z,47.1
2022-08-05T10:44:00.301Z,47.11
2022-08-05T10:45:42.793Z,47.13
2022-08-05T10:46:53.927Z,47.13
2022-08-05T10:49:00.558Z,47.16
2022-08-05T10:50:38.306Z,47.17
2022-08-05T10:52:03.864Z,47.16
2022-08-05T10:53:11.076Z,47.17
2022-08-05T10:54:37.974Z,47.21
2022-08-05T10:56:26.496Z,47.19
2022-08-05T10:57:35.253Z,47.25
2022-08-05T10:58:52.709Z,47.24
2022-08-05T11:00:20.624Z,47.29
2022-08-05T11:02:06.107Z,47.31
2022-08-05T11:03:28.376Z,47.28
2022-08-05T11:04:38.353Z,47.3
2022-08-05T11:05:50.576Z,47.3
2022-08-05T11:06:58.127Z,47.31
2022-08-05T11:08:38.270Z,47.33
2022-08-05T11:09:48.587Z,47.33
2022-08-05T11:11:16.634Z,47.38
2022-08-05T11:12:21.210Z,47.37
2022-08-05T11:13:29.599Z,47.41
2022-08-05T11:15:21.474Z,47.41
2022-08-05T11:17:01.161Z,47.42
2022-08-05T11:20:19.846Z,47.44
2022-08-05T11:21:26.717Z,47.44
2022-08-05T11:22:34.363Z,47.42
2022-08-05T11:24:31.410Z,47.45
2022-08-05T11:26:11.061Z,47.44
2022-08-05T11:27:15.412Z,47.41
2022-08-05T11:28:20.007Z,47.47
2022-08-05T11:29:29.769Z,47.48
2022-08-05T11:30:34.868Z,47.48
2022-08-05T11:32:02.251Z,47.53
2022-08-05T11:33:23.241Z,47.57
2022-08-05T11:34:29.573Z,47.63
2022-08-05T11:36:09.378Z,47.77
2022-08-05T11:38:52.337Z,47.92
2022-08-05T11:40:05.710Z,48.02
2022-08-05T11:42:05.600Z,48.06
2022-08-05T11:43:11.918Z,48.14
2022-08-05T11:44:54.643Z,48.33
2022-08-05T11:46:34.949Z,48.63
2022-08-05T11:47:55.556Z,48.6
2022-08-05T11:49:01.401Z,48.61
2022-08-05T11:50:07.018Z,48.03
2022-08-05T11:51:49.323Z,48.42
2022-08-05T11:53:02.224Z,48.28
2022-08-05T11:54:17.272Z,48.23
2022-08-05T11:55:37.668Z,48.21
2022-08-05T11:56:43.199Z,48.2
2022-08-05T11:58:14.409Z,48.21
2022-08-05T11:59:23.346Z,48.28
2022-08-05T12:00:31.516Z,48.11
2022-08-05T12:01:39.646Z,48.25
2022-08-05T12:02:47.000Z,48.27
2022-08-05T12:03:57.813Z,48.32
2022-08-05T12:05:17.915Z,48.35
2022-08-05T12:06:22.384Z,48.39
2022-08-05T12:08:19.010Z,48.39
2022-08-05T12:09:54.733Z,48.1
2022-08-05T12:10:59.843Z,48.33
2022-08-05T12:12:11.739Z,48.52
2022-08-05T12:13:48.338Z,48.6
2022-08-05T12:14:57.468Z,48.46
2022-08-05T12:16:01.837Z,49.37
2022-08-05T12:18:10.317Z,49.26
2022-08-05T12:20:34.954Z,49.18
2022-08-05T12:21:41.392Z,49.11
2022-08-05T12:22:52.881Z,49.21
2022-08-05T12:23:57.592Z,48.93
2022-08-05T12:25:05.388Z,49.09
2022-08-05T12:26:10.403Z,49.14
2022-08-05T12:27:33.774Z,48.8
2022-08-05T12:28:39.578Z,49.05
2022-08-05T12:29:58.043Z,49.29
2022-08-05T12:31:04.242Z,49.27
2022-08-05T12:32:13.217Z,49.36
2022-08-05T12:33:38.715Z,49.27
2022-08-05T12:34:43.350Z,49.25
2022-08-05T12:35:53.859Z,49.19
2022-08-05T12:36:58.266Z,49.28
2022-08-05T12:38:05.046Z,49.28
2022-08-05T12:39:10.758Z,49.13
2022-08-05T12:40:30.872Z,49.07
2022-08-05T12:41:44.876Z,49.22
2022-08-05T12:42:50.844Z,49.02
2022-08-05T12:43:55.208Z,49.31
2022-08-05T12:44:59.937Z,49.11
2022-08-05T12:46:04.793Z,49.65
2022-08-05T12:47:18.172Z,49.73
2022-08-05T12:48:34.073Z,50.02
2022-08-05T12:50:11.466Z,49.48
2022-08-05T12:52:29.747Z,49.42
2022-08-05T12:53:40.855Z,49.54
2022-08-05T12:54:46.591Z,49.56
2022-08-05T12:55:57.057Z,49.58
2022-08-05T12:57:04.773Z,49.32
2022-08-05T12:59:02.588Z,49.29
2022-08-05T13:02:09.973Z,49.49
2022-08-05T13:03:18.026Z,49.49
2022-08-05T13:04:26.134Z,49.4
2022-08-05T13:05:45.217Z,49.28
2022-08-05T13:06:54.094Z,49.25
2022-08-05T13:08:02.878Z,49.31
2022-08-05T13:09:13.642Z,49.31
2022-08-05T13:10:22.258Z,49.46
2022-08-05T13:12:05.113Z,49.32
2022-08-05T13:14:08.840Z,49.91
2022-08-05T13:15:51.273Z,50.01
2022-08-05T13:16:59.667Z,49.76
2022-08-05T13:18:04.073Z,49.89
2022-08-05T13:19:09.093Z,49.76
2022-08-05T13:20:13.565Z,49.61
2022-08-05T13:21:38.190Z,49.79
2022-08-05T13:22:53.156Z,50.47
2022-08-05T13:23:59.695Z,49.89
2022-08-05T13:25:22.082Z,50.42
2022-08-05T13:26:55.614Z,50.31
2022-08-05T13:28:00.993Z,50.43
2022-08-05T13:29:07.202Z,50.11
2022-08-05T13:30:40.244Z,50.23
2022-08-05T13:32:07.215Z,50.21
2022-08-05T13:34:26.312Z,49.99
2022-08-05T13:35:52.766Z,50.65
2022-08-05T13:36:57.108Z,50.37
2022-08-05T13:38:07.399Z,50.63
2022-08-05T13:40:48.046Z,50.78
2022-08-05T13:41:57.906Z,50.63
2022-08-05T13:43:02.332Z,50.58
2022-08-05T13:44:11.028Z,50.56
2022-08-05T13:45:22.816Z,51.64
2022-08-05T13:47:09.394Z,51.43
2022-08-05T13:49:02.271Z,51.68
2022-08-05T13:50:17.689Z,51.29
2022-08-05T13:51:22.826Z,51.03
2022-08-05T13:52:35.145Z,50.95
2022-08-05T13:53:49.715Z,50.98
2022-08-05T13:54:55.603Z,51
2022-08-05T13:56:04.092Z,50.82
2022-08-05T13:57:22.802Z,50.78
2022-08-05T13:58:33.138Z,50.62
2022-08-05T13:59:59.565Z,50.43
2022-08-05T14:01:08.284Z,50.81
2022-08-05T14:02:29.657Z,50.56
2022-08-05T14:03:35.369Z,50.4
2022-08-05T14:04:43.214Z,50.31
2022-08-05T14:06:28.735Z,50.55
2022-08-05T14:08:27.600Z,50.45
2022-08-05T14:09:32.436Z,50.33
2022-08-05T14:10:39.411Z,50.24
2022-08-05T14:12:33.080Z,50.33
2022-08-05T14:13:37.432Z,50.33
2022-08-05T14:14:43.899Z,50.18
2022-08-05T14:16:19.103Z,50.34
2022-08-05T14:17:23.707Z,50.12
2022-08-05T14:18:30.224Z,50.21
2022-08-05T14:20:04.775Z,50.24
2022-08-05T14:22:13.275Z,49.97
2022-08-05T14:23:37.578Z,50.01
2022-08-05T14:24:47.630Z,49.73
2022-08-05T14:25:59.682Z,49.88
2022-08-05T14:27:20.173Z,49.89
2022-08-05T14:28:29.400Z,49.75
2022-08-05T14:29:34.705Z,49.68
2022-08-05T14:30:47.354Z,49.85
2022-08-05T14:32:27.894Z,49.7
2022-08-05T14:34:01.786Z,49.78
2022-08-05T14:35:12.626Z,49.75
2022-08-05T14:36:22.495Z,49.79
2022-08-05T14:37:55.616Z,49.71
2022-08-05T14:39:03.870Z,49.44
2022-08-05T14:40:08.463Z,49.4
2022-08-05T14:41:19.678Z,49.58
2022-08-05T14:42:26.077Z,49.37
2022-08-05T14:44:20.176Z,49.4
2022-08-05T14:45:27.555Z,49.44
2022-08-05T14:46:36.030Z,49.39
2022-08-05T14:48:09.936Z,49.34
2022-08-05T14:50:19.427Z,49.32
2022-08-05T14:51:23.858Z,49.37
2022-08-05T14:53:00.508Z,49.24
2022-08-05T14:54:35.702Z,49.16
2022-08-05T14:55:57.389Z,49.17
2022-08-05T14:57:09.565Z,49.22
2022-08-05T14:58:16.120Z,49.14
2022-08-05T14:59:23.923Z,49.18
2022-08-05T15:00:33.584Z,49.18
2022-08-05T15:01:51.543Z,49.2
2022-08-05T15:03:00.084Z,49.17
2022-08-05T15:04:05.511Z,49.19
2022-08-05T15:05:15.767Z,49.24
2022-08-05T15:06:31.180Z,49.02
2022-08-05T15:09:03.365Z,49.14
2022-08-05T15:10:11.751Z,49.22
2022-08-05T15:11:17.010Z,49.1
2022-08-05T15:12:21.348Z,49.12
2022-08-05T15:13:51.419Z,49.02
2022-08-05T15:14:58.176Z,48.99
2022-08-05T15:16:02.530Z,49
2022-08-05T15:17:45.151Z,48.96
2022-08-05T15:18:53.553Z,48.92
2022-08-05T15:19:58.988Z,48.9
2022-08-05T15:21:10.083Z,48.93
2022-08-05T15:22:18.426Z,48.92
2022-08-05T15:23:26.552Z,48.89
2022-08-05T15:24:31.836Z,48.87
2022-08-05T15:26:00.999Z,48.81
2022-08-05T15:27:11.176Z,48.81
2022-08-05T15:28:17.258Z,48.82
2022-08-05T15:29:23.992Z,48.78
2022-08-05T15:30:36.991Z,48.76
2022-08-05T15:31:42.636Z,48.76
2022-08-05T15:32:48.733Z,48.68
2022-08-05T15:34:34.145Z,48.67
2022-08-05T15:35:50.925Z,48.65
2022-08-05T15:36:55.280Z,48.61
2022-08-05T15:38:43.451Z,48.6
2022-08-05T15:41:24.453Z,48.63
2022-08-05T15:43:19.634Z,48.62
2022-08-05T15:44:24.453Z,48.59
2022-08-05T15:45:40.809Z,48.6
2022-08-05T15:46:45.200Z,48.58
2022-08-05T15:47:55.209Z,48.56
2022-08-05T15:49:26.498Z,48.56
2022-08-05T15:50:46.679Z,48.55
2022-08-05T15:52:55.201Z,48.49
2022-08-05T15:54:01.921Z,48.47
2022-08-05T15:55:17.994Z,48.49
2022-08-05T15:56:23.977Z,48.47
2022-08-05T15:57:35.826Z,48.47
2022-08-05T15:58:40.163Z,48.47
2022-08-05T15:59:47.917Z,48.48
2022-08-05T16:01:18.813Z,48.45
2022-08-05T16:02:31.672Z,48.4
2022-08-05T16:03:43.023Z,48.49
2022-08-05T16:04:48.025Z,48.45
2022-08-05T16:05:58.057Z,48.44
2022-08-05T16:07:02.655Z,48.42
2022-08-05T16:08:07.056Z,48.4
2022-08-05T16:09:12.514Z,48.37
2022-08-05T16:10:27.760Z,48.4
2022-08-05T16:11:48.575Z,48.39
2022-08-05T16:12:58.295Z,48.36
2022-08-05T16:14:03.582Z,48.41
2022-08-05T16:15:19.589Z,48.34
2022-08-05T16:16:28.344Z,48.37
2022-08-05T16:17:34.665Z,48.34
2022-08-05T16:18:54.482Z,48.34
2022-08-05T16:20:13.068Z,48.35
2022-08-05T16:21:17.833Z,48.33
2022-08-05T16:22:35.702Z,48.34
2022-08-05T16:24:03.272Z,48.31
2022-08-05T16:25:12.002Z,48.34
2022-08-05T16:26:19.029Z,48.34
2022-08-05T16:28:09.598Z,48.28
2022-08-05T16:29:21.044Z,48.38
2022-08-05T16:30:30.118Z,48.28
2022-08-05T16:31:59.539Z,48.32
2022-08-05T16:33:04.190Z,48.33
2022-08-05T16:34:11.629Z,48.31
2022-08-05T16:35:32.250Z,48.26
2022-08-05T16:36:44.907Z,48.25
2022-08-05T16:38:27.950Z,48.28
2022-08-05T16:40:28.981Z,48.29
2022-08-05T16:42:28.756Z,48.27
2022-08-05T16:43:34.834Z,48.3
2022-08-05T16:44:40.867Z,48.29
2022-08-05T16:46:25.118Z,48.34
2022-08-05T16:47:57.375Z,45.36
2022-08-05T16:49:06.135Z,45.02
2022-08-05T16:50:10.487Z,45.12
2022-08-05T16:51:16.700Z,45.63
2022-08-05T16:52:22.715Z,45.82
2022-08-05T16:54:22.580Z,45.83
2022-08-05T16:55:48.605Z,45.88
2022-08-05T16:56:54.325Z,45.99
2022-08-05T16:58:09.549Z,45.63
2022-08-05T16:59:17.820Z,45.04
2022-08-05T17:00:38.892Z,44.49
2022-08-05T17:01:58.073Z,44.64
2022-08-05T17:03:04.650Z,44.32
2022-08-05T17:04:20.751Z,43.77
2022-08-05T17:05:29.608Z,43.9
2022-08-05T17:06:35.445Z,43.9
2022-08-05T17:07:57.140Z,43.82
2022-08-05T17:09:01.838Z,44.01
2022-08-05T17:10:06.318Z,43.78
2022-08-05T17:11:17.841Z,43.9
2022-08-05T17:12:53.668Z,43.81
2022-08-05T17:14:13.934Z,44.09
2022-08-05T17:16:26.666Z,44.47
2022-08-05T17:17:44.739Z,44.56
2022-08-05T17:18:50.578Z,44.96
2022-08-05T17:19:57.687Z,45.23
2022-08-05T17:21:05.504Z,45.29
2022-08-05T17:22:26.093Z,45.96
2022-08-05T17:24:35.271Z,46.8
2022-08-05T17:25:45.277Z,47.09
2022-08-05T17:26:50.223Z,47.14
2022-08-05T17:27:55.499Z,47.42
2022-08-05T17:28:59.830Z,47.44
2022-08-05T17:30:29.910Z,47.72
2022-08-05T17:32:00.640Z,47.72
2022-08-05T17:33:10.595Z,47.79
2022-08-05T17:34:20.488Z,47.77
2022-08-05T17:36:38.692Z,47.98
2022-08-05T17:37:51.579Z,48.05
2022-08-05T17:39:00.264Z,48.18
2022-08-05T17:40:05.517Z,48.17
2022-08-05T17:42:29.020Z,48.37
2022-08-05T17:43:55.458Z,48.3